Time;durP1;ratioP1;P1;durP2;ratioP2;P2;SDS_P1;SDS_P2;PMS_P1;PMS_P2;Temp;Humidity;BMP_temperature;BMP_pressure;BME280_temperature;BME280_humidity;BME280_pressure;Samples;Min_cycle;Max_cycle;Signal;HPM_P1;HPM_P2
2022/03/29 00:00:00;;;;;;;18.15;9.18;;;;;;;4.88;51.10;101736.56;5039510;28;20512;-77
2022/03/29 00:02:25;;;;;;;21.45;9.45;;;;;;;4.79;51.05;101733.13;5041576;28;20128;-81
2022/03/29 00:04:51;;;;;;;22.35;10.27;;;;;;;4.70;51.57;101734.84;5026091;28;20040;-79
2022/03/29 00:07:17;;;;;;;28.05;11.00;;;;;;;4.84;51.19;101733.97;5039975;28;20498;-79
2022/03/29 00:09:42;;;;;;;19.98;9.95;;;;;;;4.86;51.30;101733.13;5039726;28;20029;-79
2022/03/29 00:12:08;;;;;;;21.58;9.00;;;;;;;4.86;51.11;101733.97;5040593;28;20036;-79
2022/03/29 00:14:33;;;;;;;25.17;9.27;;;;;;;4.52;51.64;101731.44;5023932;28;20112;-80
2022/03/29 00:16:59;;;;;;;24.17;10.48;;;;;;;4.61;51.37;101722.81;5026913;28;20025;-78
2022/03/29 00:19:24;;;;;;;22.38;9.90;;;;;;;4.27;52.33;101722.81;5042315;28;20021;-78
2022/03/29 00:21:50;;;;;;;20.45;9.95;;;;;;;4.31;52.22;101727.13;5039988;28;20122;-80
2022/03/29 00:24:15;;;;;;;21.23;10.32;;;;;;;4.31;51.97;101719.38;5042891;28;20040;-78
2022/03/29 00:26:41;;;;;;;21.48;9.55;;;;;;;4.23;52.10;101710.75;5041756;28;20025;-76
2022/03/29 00:29:08;;;;;;;32.72;12.45;;;;;;;4.26;52.11;101715.06;5024104;28;20705;-80
2022/03/29 00:31:33;;;;;;;19.95;9.40;;;;;;;4.37;51.91;101706.44;5040087;28;20025;-78
2022/03/29 00:33:59;;;;;;;22.38;10.13;;;;;;;4.40;51.97;101698.66;5006778;28;20041;-78
2022/03/29 00:36:24;;;;;;;22.10;9.73;;;;;;;4.44;52.26;101699.53;5040902;28;20783;-79
2022/03/29 00:38:50;;;;;;;19.10;9.07;;;;;;;4.34;52.16;101688.31;5022186;28;21536;-79
2022/03/29 00:41:15;;;;;;;23.85;10.52;;;;;;;4.59;51.98;101693.47;5029743;28;20108;-80
2022/03/29 00:43:41;;;;;;;24.25;11.23;;;;;;;4.53;51.59;101688.28;5045066;28;20048;-78
2022/03/29 00:46:07;;;;;;;22.48;10.88;;;;;;;4.63;51.86;101684.81;5030287;28;20033;-79
2022/03/29 00:48:32;;;;;;;18.90;10.35;;;;;;;4.66;51.68;101678.78;5045814;28;20047;-79
2022/03/29 00:50:58;;;;;;;21.33;10.60;;;;;;;4.62;51.71;101676.19;5032406;28;20037;-78
2022/03/29 00:53:24;;;;;;;22.63;9.82;;;;;;;4.68;51.77;101677.06;5044601;28;20052;-78
2022/03/29 00:55:52;;;;;;;24.35;10.20;;;;;;;4.71;51.83;101677.88;5028579;28;20128;-81
2022/03/29 00:58:17;;;;;;;28.27;10.45;;;;;;;4.77;51.89;101667.53;5029299;28;20048;-79
2022/03/29 01:00:44;;;;;;;28.38;11.98;;;;;;;4.86;51.45;101670.97;5046950;28;20025;-80
2022/03/29 01:03:11;;;;;;;19.83;10.75;;;;;;;4.84;51.52;101666.63;5047943;28;20052;-79
2022/03/29 01:05:36;;;;;;;22.77;10.60;;;;;;;4.78;51.31;101664.03;5028655;28;20032;-79
2022/03/29 01:08:02;;;;;;;22.17;11.70;;;;;;;4.68;51.44;101654.59;5030905;28;20036;-79
2022/03/29 01:10:28;;;;;;;30.98;11.27;;;;;;;4.74;51.34;101651.97;5050287;28;20037;-80
2022/03/29 01:12:56;;;;;;;31.98;11.82;;;;;;;4.88;51.39;101654.56;5028387;28;20056;-78
2022/03/29 01:15:24;;;;;;;22.08;9.95;;;;;;;4.70;51.63;101650.28;5029741;28;20037;-79
2022/03/29 01:17:50;;;;;;;22.13;11.23;;;;;;;4.85;51.85;101644.16;5045047;28;20044;-80
2022/03/29 01:20:25;;;;;;;27.15;11.30;;;;;;;4.94;51.41;101648.50;5047252;28;20032;-80
2022/03/29 01:22:51;;;;;;;23.48;10.73;;;;;;;4.93;51.74;101626.06;5030220;28;20036;-81
2022/03/29 01:25:19;;;;;;;26.63;11.27;;;;;;;4.99;51.20;101633.81;5047283;28;20036;-79
2022/03/29 01:27:47;;;;;;;20.08;9.57;;;;;;;5.03;51.47;101631.19;5024366;28;20040;-80
2022/03/29 01:30:13;;;;;;;24.75;10.73;;;;;;;5.08;51.02;101631.16;5048911;28;20048;-80
2022/03/29 01:32:40;;;;;;;29.65;11.57;;;;;;;4.92;51.20;101627.78;5044756;28;20072;-79
2022/03/29 01:35:07;;;;;;;22.88;10.80;;;;;;;4.93;50.97;101626.06;5012486;28;20548;-79
2022/03/29 01:37:34;;;;;;;23.02;10.27;;;;;;;4.97;51.38;101620.84;5047262;28;20045;-79
2022/03/29 01:40:12;;;;;;;26.17;10.80;;;;;;;5.03;51.28;101623.41;5029409;28;20059;-76
2022/03/29 01:42:38;;;;;;;21.30;9.93;;;;;;;5.11;51.12;101614.75;5028771;28;20048;-78
2022/03/29 01:45:04;;;;;;;26.20;11.15;;;;;;;5.17;50.94;101619.91;5047982;28;20064;-78
2022/03/29 01:47:30;;;;;;;24.25;11.07;;;;;;;5.18;50.75;101619.88;5047238;28;20115;-80
2022/03/29 01:49:55;;;;;;;27.15;10.68;;;;;;;5.12;50.90;101619.03;5045305;28;20467;-80
2022/03/29 01:52:21;;;;;;;30.33;11.45;;;;;;;5.10;51.10;101613.88;5042778;28;20053;-79
2022/03/29 01:54:46;;;;;;;26.88;10.40;;;;;;;5.08;51.19;101610.44;5025933;28;20037;-80
2022/03/29 01:57:12;;;;;;;20.95;10.48;;;;;;;4.95;51.61;101616.56;5044814;28;20131;-79
2022/03/29 02:02:26;;;;;;;21.98;11.05;;;;;;;4.95;51.75;101603.59;5047462;28;20052;-80
2022/03/29 02:04:52;;;;;;;26.52;12.68;;;;;;;5.07;51.35;101603.53;5042018;28;20073;-77
2022/03/29 02:07:18;;;;;;;26.00;12.40;;;;;;;4.97;51.44;101607.03;5043885;28;20044;-78
2022/03/29 02:09:44;;;;;;;27.33;13.23;;;;;;;5.07;51.05;101603.53;5043230;28;20028;-78
2022/03/29 02:12:12;;;;;;;28.42;12.15;;;;;;;4.87;51.67;101595.81;5027607;28;20041;-79
2022/03/29 02:14:38;;;;;;;27.52;11.98;;;;;;;5.08;51.59;101592.31;5026350;28;20033;-79
2022/03/29 02:17:05;;;;;;;32.80;13.75;;;;;;;5.09;51.26;101588.81;5024293;28;20047;-80
2022/03/29 02:19:31;;;;;;;26.58;12.93;;;;;;;5.00;51.43;101594.06;5041317;28;20075;-75
2022/03/29 02:21:57;;;;;;;32.45;12.88;;;;;;;4.82;51.80;101582.88;5025171;28;20057;-79
2022/03/29 02:24:23;;;;;;;30.80;12.57;;;;;;;5.01;51.89;101583.69;5043674;28;20044;-79
2022/03/29 02:26:49;;;;;;;30.42;12.15;;;;;;;4.94;51.83;101581.13;5044378;28;20036;-79
2022/03/29 02:29:14;;;;;;;31.27;13.57;;;;;;;4.98;51.91;101575.94;5044311;28;20116;-79
2022/03/29 02:31:39;;;;;;;27.25;12.15;;;;;;;5.13;51.84;101574.13;5047040;28;20035;-79
2022/03/29 02:34:05;;;;;;;28.45;12.80;;;;;;;5.10;51.41;101569.84;5045846;28;20136;-79
2022/03/29 02:36:30;;;;;;;27.15;12.95;;;;;;;5.04;51.64;101569.88;5027793;28;20044;-79
2022/03/29 02:38:56;;;;;;;27.63;13.32;;;;;;;4.99;51.80;101575.06;5024832;28;20504;-78
2022/03/29 02:41:21;;;;;;;26.85;12.57;;;;;;;5.06;51.51;101568.13;5044519;28;20037;-79
2022/03/29 02:43:47;;;;;;;29.42;12.43;;;;;;;4.90;51.75;101566.47;5040569;28;20056;-78
2022/03/29 02:46:13;;;;;;;28.70;12.38;;;;;;;5.05;51.85;101569.84;5045920;28;20029;-79
2022/03/29 02:48:39;;;;;;;32.38;12.13;;;;;;;5.14;51.65;101571.50;5043798;28;20411;-78
2022/03/29 02:51:05;;;;;;;31.00;11.38;;;;;;;4.99;52.02;101575.06;5025378;28;20040;-79
2022/03/29 02:53:30;;;;;;;27.85;13.18;;;;;;;4.99;51.90;101572.47;5043819;28;20056;-79
2022/03/29 02:55:56;;;;;;;33.78;12.75;;;;;;;4.98;51.88;101572.47;5025821;28;20040;-79
2022/03/29 02:58:22;;;;;;;28.65;12.80;;;;;;;5.04;51.67;101567.28;5041951;28;20060;-80
2022/03/29 03:00:47;;;;;;;29.45;12.00;;;;;;;5.05;51.91;101561.22;5023716;28;20029;-78
2022/03/29 03:03:13;;;;;;;26.30;11.38;;;;;;;5.17;51.42;101560.28;5041468;28;20241;-81
2022/03/29 03:05:38;;;;;;;26.58;11.48;;;;;;;5.12;51.27;101554.25;5040774;28;20029;-78
2022/03/29 03:08:04;;;;;;;23.92;11.00;;;;;;;4.81;51.82;101555.28;5025801;28;20491;-78
2022/03/29 03:10:30;;;;;;;22.35;9.93;;;;;;;5.16;51.03;101546.44;5042245;28;20120;-79
2022/03/29 03:12:55;;;;;;;27.42;11.20;;;;;;;5.22;51.00;101551.59;5044222;28;20145;-79
2022/03/29 03:15:23;;;;;;;24.95;11.63;;;;;;;5.25;50.99;101548.97;5047013;28;20426;-79
2022/03/29 03:17:53;;;;;;;26.58;11.43;;;;;;;5.32;50.41;101551.53;5041193;28;20053;-77
2022/03/29 03:20:20;;;;;;;33.33;12.40;;;;;;;5.28;50.82;101544.66;5043120;28;20036;-80
2022/03/29 03:22:45;;;;;;;22.95;11.20;;;;;;;5.31;50.76;101545.50;5041425;28;20094;-81
2022/03/29 03:25:11;;;;;;;26.20;12.95;;;;;;;5.28;50.83;101542.06;5024400;28;20025;-78
2022/03/29 03:27:38;;;;;;;27.50;11.20;;;;;;;5.32;50.65;101554.97;5037169;28;20384;-79
2022/03/29 03:30:05;;;;;;;23.60;11.23;;;;;;;5.36;50.66;101548.91;5024813;28;20039;-80
2022/03/29 03:32:31;;;;;;;22.02;10.82;;;;;;;5.29;50.99;101552.41;5040523;28;20033;-77
2022/03/29 03:34:57;;;;;;;24.27;11.75;;;;;;;5.28;50.76;101547.22;5039560;28;20033;-79
2022/03/29 03:37:23;;;;;;;27.05;11.75;;;;;;;5.31;50.83;101549.81;5027758;28;20048;-79
2022/03/29 03:39:49;;;;;;;32.42;11.00;;;;;;;5.30;50.89;101546.38;5023685;28;20098;-79
2022/03/29 03:42:14;;;;;;;26.05;11.27;;;;;;;5.31;50.62;101544.66;5041119;28;20049;-79
2022/03/29 03:44:40;;;;;;;23.55;10.65;;;;;;;5.31;50.63;101542.91;5043075;28;20131;-79
2022/03/29 03:47:08;;;;;;;19.70;8.80;;;;;;;5.04;50.85;101538.78;5040497;28;20130;-79
2022/03/29 03:49:34;;;;;;;21.40;7.97;;;;;;;5.29;50.48;101542.06;5024921;28;20159;-78
2022/03/29 03:52:00;;;;;;;22.60;8.50;;;;;;;5.38;50.02;101530.75;5024669;28;20044;-77
2022/03/29 03:54:26;;;;;;;18.92;7.30;;;;;;;5.35;50.04;101531.66;5047608;28;20039;-79
2022/03/29 03:56:52;;;;;;;18.52;6.70;;;;;;;5.37;50.05;101535.09;5022055;28;20662;-78
2022/03/29 03:59:17;;;;;;;19.50;5.22;;;;;;;5.29;49.69;101536.88;5046210;28;20040;-80
2022/03/29 04:01:43;;;;;;;20.60;5.25;;;;;;;4.94;50.41;101537.09;5029538;28;20037;-79
2022/03/29 04:04:08;;;;;;;18.23;5.15;;;;;;;4.97;50.32;101532.75;5026124;28;20708;-78
2022/03/29 04:06:34;;;;;;;12.30;4.78;;;;;;;5.18;49.62;101528.31;5041355;28;20104;-80
2022/03/29 04:08:59;;;;;;;13.75;4.72;;;;;;;5.12;49.24;101518.81;5007626;28;20033;-79
2022/03/29 04:11:26;;;;;;;20.45;4.05;;;;;;;5.16;49.67;101530.91;5041993;28;20032;-80
2022/03/29 04:13:52;;;;;;;18.65;4.38;;;;;;;5.11;49.38;101514.53;5039569;28;20056;-78
2022/03/29 04:16:17;;;;;;;16.15;3.78;;;;;;;4.86;49.96;101506.03;5027899;28;20033;-78
2022/03/29 04:18:43;;;;;;;17.95;4.07;;;;;;;4.94;50.10;101508.59;5043735;28;20264;-77
2022/03/29 04:21:09;;;;;;;12.73;3.70;;;;;;;5.02;50.21;101512.00;5027708;28;20044;-79
2022/03/29 04:23:38;;;;;;;20.10;5.38;;;;;;;5.03;49.87;101508.53;5007366;28;20087;-80
2022/03/29 04:26:04;;;;;;;15.43;4.25;;;;;;;4.92;49.92;101505.16;5040163;28;20558;-79
2022/03/29 04:28:32;;;;;;;18.02;3.95;;;;;;;4.89;50.21;101511.22;5044798;28;20044;-81
2022/03/29 04:31:00;;;;;;;11.88;4.10;;;;;;;4.93;49.52;101509.47;5012913;28;20558;-79
2022/03/29 04:33:26;;;;;;;19.40;4.63;;;;;;;4.75;49.45;101507.81;5043771;28;20071;-79
2022/03/29 04:35:52;;;;;;;20.95;4.25;;;;;;;4.46;50.05;101505.38;5026431;28;20132;-78
2022/03/29 04:38:18;;;;;;;21.90;3.75;;;;;;;4.99;48.51;101499.09;5048002;28;20124;-81
2022/03/29 04:40:43;;;;;;;13.82;3.50;;;;;;;4.83;48.58;101496.56;5017616;28;20474;-78
2022/03/29 04:43:09;;;;;;;25.88;4.88;;;;;;;4.74;48.74;101495.72;5025701;28;20063;-79
2022/03/29 04:45:34;;;;;;;23.50;4.90;;;;;;;4.75;48.75;101503.50;5024826;28;20370;-80
2022/03/29 04:48:02;;;;;;;11.02;5.20;;;;;;;4.64;48.42;101495.78;5047792;28;20398;-79
2022/03/29 04:50:29;;;;;;;16.15;4.85;;;;;;;4.78;48.54;101494.84;5025157;28;20060;-81
2022/03/29 04:52:55;;;;;;;18.80;4.22;;;;;;;4.77;48.74;101491.41;5040565;28;20083;-81
2022/03/29 04:55:21;;;;;;;19.38;5.28;;;;;;;4.81;48.04;101487.94;5025024;28;20127;-79
2022/03/29 04:57:48;;;;;;;16.63;3.72;;;;;;;4.64;48.60;101488.00;5025995;28;20505;-81
2022/03/29 05:00:16;;;;;;;24.70;4.28;;;;;;;4.68;48.17;101486.28;5027962;28;20037;-78
2022/03/29 05:02:46;;;;;;;16.33;4.75;;;;;;;4.54;48.52;101485.47;5026586;28;20044;-77
2022/03/29 05:05:12;;;;;;;21.35;5.57;;;;;;;4.53;48.53;101476.00;5021928;28;20041;-77
2022/03/29 05:07:38;;;;;;;19.33;6.22;;;;;;;4.68;47.94;101475.94;5040132;28;20729;-79
2022/03/29 05:10:04;;;;;;;21.27;5.10;;;;;;;4.70;48.17;101474.19;5042012;28;20037;-79
2022/03/29 05:12:30;;;;;;;16.55;5.25;;;;;;;4.75;47.60;101476.75;5026585;28;20040;-81
2022/03/29 05:14:59;;;;;;;17.60;4.55;;;;;;;4.89;47.47;101474.09;5039661;28;20044;-80
2022/03/29 05:17:24;;;;;;;18.92;3.97;;;;;;;4.92;47.64;101477.53;5040329;28;20238;-79
2022/03/29 05:19:50;;;;;;;22.60;4.55;;;;;;;4.97;47.57;101477.50;5025360;28;22463;-77
2022/03/29 05:22:15;;;;;;;16.15;4.45;;;;;;;4.97;47.48;101473.19;5023273;28;20064;-77
2022/03/29 05:24:40;;;;;;;27.85;5.72;;;;;;;4.99;47.22;101481.81;5039454;28;20038;-78
2022/03/29 05:27:06;;;;;;;17.85;4.70;;;;;;;5.06;47.58;101474.84;5045725;28;20450;-80
2022/03/29 05:29:31;;;;;;;12.25;3.58;;;;;;;4.98;47.60;101472.28;5051803;28;20043;-78
2022/03/29 05:31:58;;;;;;;12.77;3.90;;;;;;;4.90;47.53;101470.63;5025085;28;20039;-77
2022/03/29 05:34:23;;;;;;;13.82;3.40;;;;;;;5.04;47.06;101463.63;5045165;28;20059;-79
2022/03/29 05:36:49;;;;;;;21.40;4.53;;;;;;;5.11;46.82;101469.63;5023612;28;20110;-79
2022/03/29 05:39:15;;;;;;;18.70;4.07;;;;;;;5.09;47.05;101472.22;5050684;28;20021;-79
2022/03/29 05:41:41;;;;;;;19.25;5.40;;;;;;;4.77;47.96;101475.88;5025940;28;20032;-79
2022/03/29 05:44:07;;;;;;;15.65;3.28;;;;;;;5.00;47.27;101482.66;5024117;28;20049;-79
2022/03/29 05:49:19;;;;;;;18.75;4.07;;;;;;;5.20;47.26;101472.16;5048025;28;20445;-83
2022/03/29 05:51:45;;;;;;;12.90;3.85;;;;;;;5.33;47.28;101478.09;5036393;28;20021;-81
2022/03/29 05:54:10;;;;;;;16.45;4.28;;;;;;;5.34;46.82;101472.03;5052432;28;20032;-80
2022/03/29 05:56:36;;;;;;;12.73;3.67;;;;;;;4.95;47.16;101468.88;5061679;28;20032;-77
2022/03/29 05:59:01;;;;;;;17.77;5.25;;;;;;;5.14;47.42;101479.97;5043334;28;20128;-81
2022/03/29 06:01:27;;;;;;;23.27;4.32;;;;;;;4.99;47.58;101483.53;5044408;28;20047;-81
2022/03/29 06:03:53;;;;;;;13.73;3.60;;;;;;;4.95;47.67;101476.66;5027113;28;20066;-80
2022/03/29 06:06:19;;;;;;;14.00;3.50;;;;;;;5.03;47.06;101488.69;5050639;28;20032;-82
2022/03/29 06:08:44;;;;;;;12.95;3.58;;;;;;;4.88;47.32;101480.13;5045504;28;20111;-80
2022/03/29 06:11:10;;;;;;;22.52;4.57;;;;;;;4.85;47.43;101478.41;5028970;28;20111;-81
2022/03/29 06:13:36;;;;;;;14.00;3.40;;;;;;;5.09;47.05;101482.59;5044801;28;20043;-82
2022/03/29 06:16:02;;;;;;;13.93;2.90;;;;;;;4.96;47.19;101479.22;5047538;28;20466;-81
2022/03/29 06:18:30;;;;;;;18.02;3.65;;;;;;;5.23;46.64;101479.88;5027839;28;20037;-79
2022/03/29 06:20:57;;;;;;;24.30;4.03;;;;;;;5.22;46.47;101484.22;5027920;28;20029;-81
2022/03/29 06:23:22;;;;;;;24.33;3.60;;;;;;;5.46;46.43;101483.16;5026976;28;20044;-81
2022/03/29 06:25:50;;;;;;;19.33;3.88;;;;;;;5.32;46.24;101484.13;5039366;28;20312;-83
2022/03/29 06:28:17;;;;;;;14.60;3.90;;;;;;;5.42;45.32;101485.78;5026777;28;20044;-80
2022/03/29 06:30:44;;;;;;;6.15;2.50;;;;;;;5.41;45.12;101487.53;5025783;28;20676;-84
2022/03/29 06:33:10;;;;;;;11.05;3.60;;;;;;;5.56;45.86;101480.47;5043152;28;20546;-83
2022/03/29 06:35:38;;;;;;;15.02;3.03;;;;;;;5.45;45.95;101483.16;5027424;28;20029;-79
2022/03/29 06:38:05;;;;;;;15.25;2.13;;;;;;;5.14;46.09;101488.59;5042530;28;20712;-84
2022/03/29 06:40:31;;;;;;;18.13;2.50;;;;;;;5.11;46.33;101495.53;5028627;28;20032;-84
2022/03/29 06:43:00;;;;;;;20.60;2.67;;;;;;;5.23;45.74;101491.13;5048451;28;20154;-82
2022/03/29 06:45:28;;;;;;;10.75;2.40;;;;;;;4.96;45.61;101493.91;5026776;28;20032;-84
2022/03/29 06:47:54;;;;;;;10.85;2.10;;;;;;;5.35;44.99;101489.31;5026936;28;20222;-78
2022/03/29 06:50:20;;;;;;;14.48;1.40;;;;;;;4.96;44.99;101491.31;5042689;28;20589;-83
2022/03/29 06:52:47;;;;;;;27.52;2.38;;;;;;;5.18;44.64;101486.84;5027684;28;20052;-78
2022/03/29 06:55:16;;;;;;;9.45;1.70;;;;;;;5.31;44.20;101492.81;5041191;28;20039;-79
2022/03/29 06:57:41;;;;;;;12.18;2.30;;;;;;;5.45;43.92;101490.94;5026297;28;20366;-80
2022/03/29 07:00:12;;;;;;;6.32;0.80;;;;;;;5.06;43.28;101493.00;5043959;28;20120;-79
2022/03/29 07:02:38;;;;;;;10.70;1.52;;;;;;;5.43;43.37;101490.09;5042591;28;20040;-77
2022/03/29 07:05:04;;;;;;;9.45;1.33;;;;;;;5.49;42.84;101486.59;5050839;28;20029;-80
2022/03/29 07:07:29;;;;;;;9.35;1.23;;;;;;;5.76;42.78;101491.50;5040407;28;20041;-79
2022/03/29 07:12:54;;;;;;;9.07;1.63;;;;;;;6.49;40.54;101489.00;5045491;28;20672;-79
2022/03/29 07:15:20;;;;;;;16.23;2.40;;;;;;;6.87;39.92;101483.25;5044728;28;20033;-74
2022/03/29 07:17:47;;;;;;;8.73;1.15;;;;;;;9.16;34.88;101475.38;5048155;28;20055;-83
2022/03/29 07:20:14;;;;;;;8.77;1.75;;;;;;;9.19;33.29;101473.56;5045615;28;20065;-80
2022/03/29 07:22:41;;;;;;;7.65;1.23;;;;;;;9.62;33.65;101471.59;5044940;28;20490;-79
2022/03/29 07:25:07;;;;;;;12.88;1.23;;;;;;;9.22;33.98;101475.22;5023017;28;20586;-80
2022/03/29 07:27:32;;;;;;;14.82;1.05;;;;;;;8.53;34.93;101464.63;5042353;28;20040;-82
2022/03/29 07:30:03;;;;;;;15.05;2.17;;;;;;;8.44;35.44;101471.78;5008582;28;20677;-82
2022/03/29 07:33:15;;;;;;;8.88;1.38;;;;;;;8.61;35.08;101474.03;5032414;28;20558;-78
2022/03/29 07:35:57;;;;;;;17.30;1.60;;;;;;;10.83;30.74;101464.69;4997973;28;20093;-80
2022/03/29 07:39:08;;;;;;;10.95;2.08;;;;;;;13.42;26.60;101471.78;4964294;28;20053;-79
2022/03/29 07:41:40;;;;;;;13.13;1.25;;;;;;;10.90;29.79;101471.41;4983687;28;20061;-79
2022/03/29 07:44:06;;;;;;;14.75;1.88;;;;;;;10.06;31.22;101466.97;5001659;28;20038;-82
2022/03/29 07:46:31;;;;;;;5.55;1.85;;;;;;;7.95;35.54;101471.91;4996347;28;20040;-78
2022/03/29 07:48:57;;;;;;;9.90;1.95;;;;;;;7.88;36.22;101470.31;5023544;28;20057;-79
2022/03/29 07:51:23;;;;;;;11.43;1.83;;;;;;;7.10;37.25;101474.25;5023657;28;20033;-79
2022/03/29 07:53:48;;;;;;;13.63;2.30;;;;;;;6.91;37.49;101484.09;5040806;28;20119;-80
2022/03/29 07:56:14;;;;;;;17.50;2.72;;;;;;;7.05;37.95;101473.47;5030711;28;20060;-75
2022/03/29 07:58:40;;;;;;;14.38;2.33;;;;;;;7.19;37.70;101471.50;5018118;28;20041;-79
2022/03/29 08:01:06;;;;;;;13.52;2.38;;;;;;;7.00;37.38;101477.84;5033975;28;20689;-80
2022/03/29 08:03:33;;;;;;;6.28;1.27;;;;;;;6.90;38.08;101478.00;5042628;28;20044;-79
2022/03/29 08:06:01;;;;;;;9.52;1.65;;;;;;;6.72;39.03;101473.09;5021098;28;20041;-79
2022/03/29 08:08:27;;;;;;;15.82;1.38;;;;;;;6.79;38.98;101472.09;5007907;28;20051;-83
2022/03/29 08:10:53;;;;;;;16.15;2.22;;;;;;;6.82;39.05;101466.88;5001113;28;20036;-82
2022/03/29 08:13:20;;;;;;;17.15;3.05;;;;;;;6.52;38.93;101462.13;5020369;28;20096;-80
2022/03/29 08:15:48;;;;;;;11.93;1.33;;;;;;;6.48;39.53;101471.66;5061947;28;20110;-80
2022/03/29 08:18:15;;;;;;;13.13;2.72;;;;;;;6.43;39.34;101463.94;5056867;28;20053;-81
2022/03/29 08:20:40;;;;;;;5.95;0.70;;;;;;;6.19;40.13;101462.47;5044563;28;20063;-78
2022/03/29 08:23:07;;;;;;;11.02;1.10;;;;;;;6.36;40.04;101462.31;5042153;28;20179;-82
2022/03/29 08:25:35;;;;;;;11.77;2.05;;;;;;;5.97;40.22;101467.09;5008359;28;20083;-80
2022/03/29 08:28:02;;;;;;;6.03;1.42;;;;;;;6.46;38.85;101457.84;5041207;28;20800;-77
2022/03/29 08:30:29;;;;;;;11.13;1.17;;;;;;;6.59;39.36;101463.75;5011304;28;20099;-80
2022/03/29 08:32:57;;;;;;;11.60;2.20;;;;;;;6.19;39.52;101457.28;5025887;28;20041;-79
2022/03/29 08:35:22;;;;;;;18.83;2.75;;;;;;;6.38;39.43;101460.56;5025710;28;20380;-79
2022/03/29 08:37:48;;;;;;;16.67;1.55;;;;;;;6.76;38.81;101463.50;5024050;28;20091;-79
2022/03/29 08:40:16;;;;;;;9.70;1.08;;;;;;;7.20;37.38;101451.53;5025360;28;20028;-81
2022/03/29 08:42:46;;;;;;;12.07;1.23;;;;;;;7.49;37.24;101448.47;5000153;28;20732;-81
2022/03/29 08:45:16;;;;;;;14.90;1.30;;;;;;;7.29;37.42;101447.06;5040912;28;20028;-81
2022/03/29 08:47:44;;;;;;;15.48;2.08;;;;;;;7.27;37.27;101454.03;5042090;28;20037;-80
2022/03/29 08:50:11;;;;;;;13.20;1.98;;;;;;;7.27;37.58;101442.78;5028594;28;20036;-77
2022/03/29 08:52:39;;;;;;;15.40;1.58;;;;;;;8.02;36.40;101449.19;5038694;28;20092;-77
2022/03/29 08:55:06;;;;;;;14.30;2.13;;;;;;;8.14;35.36;101442.91;5021063;28;20079;-81
2022/03/29 08:57:32;;;;;;;8.25;1.83;;;;;;;8.10;35.32;101442.09;5021902;28;20037;-78
2022/03/29 08:59:58;;;;;;;9.80;1.13;;;;;;;7.78;36.21;101444.47;5022286;28;20090;-79
2022/03/29 09:02:25;;;;;;;10.68;2.30;;;;;;;7.66;36.80;101449.03;5026873;28;20495;-79
2022/03/29 09:05:07;;;;;;;11.98;1.65;;;;;;;7.20;37.25;101449.84;5041022;28;20043;-78
2022/03/29 09:07:46;;;;;;;;;;;;;;;7.43;37.05;101438.16;5045449;28;20495;-81
2022/03/29 09:10:12;;;;;;;18.35;1.88;;;;;;;7.44;37.04;101435.53;5034900;28;19913;-78
2022/03/29 09:12:38;;;;;;;9.15;2.28;;;;;;;7.36;37.44;101439.16;5046348;28;20080;-78
2022/03/29 09:15:04;;;;;;;9.80;1.60;;;;;;;7.02;37.52;101444.91;5029507;28;20040;-81
2022/03/29 09:17:35;;;;;;;13.85;1.98;;;;;;;7.26;37.56;101441.06;5029783;28;20039;-78
2022/03/29 09:20:10;;;;;;;11.83;2.03;;;;;;;7.07;38.07;101443.13;5048194;28;20132;-80
2022/03/29 09:22:47;;;;;;;11.23;1.30;;;;;;;6.71;38.26;101448.00;5031579;28;20051;-79
2022/03/29 09:25:16;;;;;;;10.98;1.70;;;;;;;7.06;37.60;101438.78;5032340;28;20037;-76
2022/03/29 09:28:12;;;;;;;9.10;1.80;;;;;;;6.86;37.57;101441.69;5027522;28;20047;-79
2022/03/29 09:30:53;;;;;;;12.43;2.70;;;;;;;7.12;37.67;101438.69;5016579;28;20048;-78
2022/03/29 09:33:27;;;;;;;13.60;2.47;;;;;;;7.38;37.00;101425.25;5027563;28;20040;-79
2022/03/29 09:36:03;;;;;;;12.35;3.30;;;;;;;7.17;37.41;101434.25;5024374;28;20032;-79
2022/03/29 09:38:32;;;;;;;9.10;1.48;;;;;;;7.12;37.42;101438.69;5043358;28;20072;-80
2022/03/29 09:40:59;;;;;;;10.27;1.83;;;;;;;6.67;38.83;101434.19;5044226;28;20041;-81
2022/03/29 09:43:43;;;;;;;17.08;2.05;;;;;;;6.81;38.70;101430.53;5045703;28;20071;-78
2022/03/29 09:46:08;;;;;;;20.30;2.38;;;;;;;7.35;37.35;101433.09;5046957;28;20028;-79
2022/03/29 09:48:39;;;;;;;14.27;2.33;;;;;;;7.47;37.83;101430.28;5043016;28;20063;-79
2022/03/29 09:51:08;;;;;;;13.15;2.60;;;;;;;7.03;37.79;101436.25;5030004;28;20032;-79
2022/03/29 09:53:41;;;;;;;12.18;3.45;;;;;;;7.21;37.30;101433.31;5042964;28;20079;-81
2022/03/29 09:56:11;;;;;;;13.82;2.33;;;;;;;7.35;37.48;101434.84;5021774;28;20526;-79
2022/03/29 09:58:38;;;;;;;8.05;1.90;;;;;;;7.25;37.82;101435.00;5043763;28;20513;-80
2022/03/29 10:01:05;;;;;;;7.60;1.45;;;;;;;7.05;38.14;101427.53;5042642;28;20043;-79
2022/03/29 10:03:36;;;;;;;12.05;3.45;;;;;;;7.41;37.49;101427.78;5024184;28;20033;-79
2022/03/29 10:06:04;;;;;;;12.07;2.00;;;;;;;7.24;37.89;101417.66;5029412;28;20115;-78
2022/03/29 10:11:26;;;;;;;10.95;2.47;;;;;;;7.31;37.98;101419.31;5028576;28;20037;-78
2022/03/29 10:13:52;;;;;;;9.68;1.98;;;;;;;7.59;36.70;101418.81;5040773;28;20068;-80
2022/03/29 10:16:18;;;;;;;9.63;2.03;;;;;;;7.40;36.81;101417.41;5043550;28;20024;-77
2022/03/29 10:18:45;;;;;;;7.75;1.77;;;;;;;7.51;36.61;101410.25;5027214;28;20051;-79
2022/03/29 10:21:14;;;;;;;10.45;1.48;;;;;;;7.17;37.69;101410.88;5042800;28;20429;-78
2022/03/29 10:23:44;;;;;;;9.23;2.92;;;;;;;7.21;37.50;101412.53;5045236;28;20110;-78
2022/03/29 10:26:10;;;;;;;15.45;3.65;;;;;;;7.84;36.71;101413.13;5042868;28;20064;-79
2022/03/29 10:28:36;;;;;;;8.23;2.47;;;;;;;7.42;37.26;101402.63;5025457;28;20033;-77
2022/03/29 10:31:02;;;;;;;10.73;3.20;;;;;;;7.69;36.67;101399.56;5024583;28;20130;-79
2022/03/29 10:33:33;;;;;;;11.35;2.63;;;;;;;7.51;37.01;101399.84;5043101;28;20047;-79
2022/03/29 10:35:58;;;;;;;10.88;2.30;;;;;;;7.63;36.34;101404.88;5050018;28;20025;-81
2022/03/29 10:38:42;;;;;;;14.68;1.65;;;;;;;7.37;37.36;101401.88;5031661;28;20055;-79
2022/03/29 10:41:28;;;;;;;15.52;2.47;;;;;;;7.63;36.99;101409.22;5030154;28;20087;-81
2022/03/29 10:43:53;;;;;;;10.32;2.30;;;;;;;7.39;37.21;101405.28;5006372;28;20040;-78
2022/03/29 10:46:37;;;;;;;12.55;2.65;;;;;;;7.63;37.26;101404.88;5043017;28;20472;-79
2022/03/29 10:49:28;;;;;;;14.73;2.20;;;;;;;7.30;37.06;101401.97;5040288;28;20124;-82
2022/03/29 10:51:57;;;;;;;17.73;3.80;;;;;;;7.00;38.11;101389.50;5038503;28;20653;-78
2022/03/29 10:54:23;;;;;;;9.90;2.42;;;;;;;7.32;37.93;101399.34;5044540;28;20179;-81
2022/03/29 10:57:03;;;;;;;15.75;3.58;;;;;;;7.56;37.27;101392.88;5044253;28;20428;-80
2022/03/29 10:59:30;;;;;;;15.52;3.47;;;;;;;7.69;37.13;101394.34;5012400;28;20063;-80
2022/03/29 11:02:15;;;;;;;15.98;3.85;;;;;;;7.39;37.09;101394.91;5026813;28;20037;-79
2022/03/29 11:04:59;;;;;;;9.20;2.80;;;;;;;7.66;37.03;101394.41;5041666;28;20056;-77
2022/03/29 11:07:25;;;;;;;10.30;2.33;;;;;;;7.76;37.63;101395.09;5025330;28;20378;-80
2022/03/29 11:10:23;;;;;;;7.72;1.33;;;;;;;7.51;37.40;101394.66;5039489;28;20680;-80
2022/03/29 11:12:57;;;;;;;6.60;1.50;;;;;;;7.43;38.05;101393.97;5040402;28;20032;-78
2022/03/29 11:15:25;;;;;;;9.73;1.77;;;;;;;7.05;38.03;101388.53;5029617;28;20032;-80
2022/03/29 11:17:52;;;;;;;19.17;3.00;;;;;;;7.49;36.87;101388.66;5038278;28;20057;-81
2022/03/29 11:21:02;;;;;;;11.82;1.83;;;;;;;7.38;37.76;101386.25;5028562;28;20066;-80
2022/03/29 11:23:45;;;;;;;10.73;1.95;;;;;;;7.60;36.89;101384.13;5017204;28;20430;-80
2022/03/29 11:26:13;;;;;;;8.73;2.03;;;;;;;7.33;37.57;101381.13;5023060;28;20060;-79
2022/03/29 11:28:51;;;;;;;10.82;2.13;;;;;;;7.50;36.48;101367.78;5040178;28;20048;-79
2022/03/29 11:31:18;;;;;;;8.48;2.83;;;;;;;8.10;35.87;101368.34;5022321;28;20033;-78
2022/03/29 11:33:51;;;;;;;9.05;2.08;;;;;;;8.19;36.36;101367.31;5020989;28;20100;-79
2022/03/29 11:36:20;;;;;;;7.72;2.00;;;;;;;7.71;37.35;101358.75;5045478;28;20239;-80
2022/03/29 11:38:47;;;;;;;10.77;1.80;;;;;;;8.28;36.00;101367.09;5022771;28;20147;-79